sensor_id;sensor_type;location;lat;lon;timestamp;P1;durP1;ratioP1;P2;durP2;ratioP2
75935;SDS011;64614;32.062;34.834;2024-01-25T00:01:12;3.55;;;2.00;;
75935;SDS011;64614;32.062;34.834;2024-01-25T00:03:37;5.60;;;2.67;;
75935;SDS011;64614;32.062;34.834;2024-01-25T00:06:06;4.55;;;2.35;;
75935;SDS011;64614;32.062;34.834;2024-01-25T00:08:33;3.97;;;2.20;;
75935;SDS011;64614;32.062;34.834;2024-01-25T00:11:00;3.35;;;2.10;;
75935;SDS011;64614;32.062;34.834;2024-01-25T00:13:27;4.20;;;2.40;;
75935;SDS011;64614;32.062;34.834;2024-01-25T00:15:52;5.78;;;2.30;;
75935;SDS011;64614;32.062;34.834;2024-01-25T00:18:18;5.43;;;2.40;;
75935;SDS011;64614;32.062;34.834;2024-01-25T00:20:44;4.30;;;2.25;;
75935;SDS011;64614;32.062;34.834;2024-01-25T00:23:09;7.25;;;2.40;;
75935;SDS011;64614;32.062;34.834;2024-01-25T00:25:36;3.53;;;2.20;;
75935;SDS011;64614;32.062;34.834;2024-01-25T00:28:01;5.75;;;2.30;;
75935;SDS011;64614;32.062;34.834;2024-01-25T00:30:27;4.82;;;2.30;;
75935;SDS011;64614;32.062;34.834;2024-01-25T00:32:53;3.80;;;2.15;;
75935;SDS011;64614;32.062;34.834;2024-01-25T00:35:19;3.97;;;2.20;;
75935;SDS011;64614;32.062;34.834;2024-01-25T00:37:45;4.30;;;2.00;;
75935;SDS011;64614;32.062;34.834;2024-01-25T00:40:12;5.18;;;2.42;;
75935;SDS011;64614;32.062;34.834;2024-01-25T00:42:42;3.40;;;1.92;;
75935;SDS011;64614;32.062;34.834;2024-01-25T00:45:09;4.88;;;2.30;;
75935;SDS011;64614;32.062;34.834;2024-01-25T00:47:37;4.85;;;2.20;;
75935;SDS011;64614;32.062;34.834;2024-01-25T00:50:03;3.83;;;2.00;;
75935;SDS011;64614;32.062;34.834;2024-01-25T00:52:30;4.78;;;2.22;;
75935;SDS011;64614;32.062;34.834;2024-01-25T00:54:56;4.30;;;2.28;;
75935;SDS011;64614;32.062;34.834;2024-01-25T00:57:23;3.72;;;2.03;;
75935;SDS011;64614;32.062;34.834;2024-01-25T00:59:49;5.45;;;2.30;;
75935;SDS011;64614;32.062;34.834;2024-01-25T01:02:18;4.55;;;2.00;;
75935;SDS011;64614;32.062;34.834;2024-01-25T01:04:46;3.90;;;2.00;;
75935;SDS011;64614;32.062;34.834;2024-01-25T01:07:12;3.60;;;1.90;;
75935;SDS011;64614;32.062;34.834;2024-01-25T01:09:38;2.97;;;1.98;;
75935;SDS011;64614;32.062;34.834;2024-01-25T01:12:04;4.45;;;2.00;;
75935;SDS011;64614;32.062;34.834;2024-01-25T01:14:31;4.85;;;2.22;;
75935;SDS011;64614;32.062;34.834;2024-01-25T01:16:57;4.03;;;2.20;;
75935;SDS011;64614;32.062;34.834;2024-01-25T01:19:22;3.17;;;1.80;;
75935;SDS011;64614;32.062;34.834;2024-01-25T01:21:48;3.97;;;2.05;;
75935;SDS011;64614;32.062;34.834;2024-01-25T01:24:15;4.00;;;2.20;;
75935;SDS011;64614;32.062;34.834;2024-01-25T01:26:41;4.30;;;2.10;;
75935;SDS011;64614;32.062;34.834;2024-01-25T01:29:07;3.65;;;2.30;;
75935;SDS011;64614;32.062;34.834;2024-01-25T01:31:33;5.25;;;2.20;;
75935;SDS011;64614;32.062;34.834;2024-01-25T01:33:59;4.35;;;2.17;;
75935;SDS011;64614;32.062;34.834;2024-01-25T01:36:25;3.88;;;1.90;;
75935;SDS011;64614;32.062;34.834;2024-01-25T01:38:51;5.05;;;2.30;;
75935;SDS011;64614;32.062;34.834;2024-01-25T01:41:18;3.58;;;2.00;;
75935;SDS011;64614;32.062;34.834;2024-01-25T01:43:44;4.10;;;2.00;;
75935;SDS011;64614;32.062;34.834;2024-01-25T01:46:20;4.43;;;2.15;;
75935;SDS011;64614;32.062;34.834;2024-01-25T01:48:58;3.28;;;1.80;;
75935;SDS011;64614;32.062;34.834;2024-01-25T01:51:24;3.58;;;1.90;;
75935;SDS011;64614;32.062;34.834;2024-01-25T01:53:50;4.78;;;2.20;;
75935;SDS011;64614;32.062;34.834;2024-01-25T01:56:17;4.45;;;2.10;;
75935;SDS011;64614;32.062;34.834;2024-01-25T01:58:44;4.82;;;2.20;;
75935;SDS011;64614;32.062;34.834;2024-01-25T02:01:12;3.53;;;2.00;;
75935;SDS011;64614;32.062;34.834;2024-01-25T02:03:38;3.97;;;2.15;;
75935;SDS011;64614;32.062;34.834;2024-01-25T02:06:04;4.85;;;2.30;;
75935;SDS011;64614;32.062;34.834;2024-01-25T02:08:31;3.20;;;1.85;;
75935;SDS011;64614;32.062;34.834;2024-01-25T02:10:56;4.75;;;2.28;;
75935;SDS011;64614;32.062;34.834;2024-01-25T02:13:22;4.03;;;2.03;;
75935;SDS011;64614;32.062;34.834;2024-01-25T02:15:47;3.60;;;2.00;;
75935;SDS011;64614;32.062;34.834;2024-01-25T02:18:13;4.25;;;2.10;;
75935;SDS011;64614;32.062;34.834;2024-01-25T02:20:40;4.35;;;2.30;;
75935;SDS011;64614;32.062;34.834;2024-01-25T02:23:06;4.32;;;2.03;;
75935;SDS011;64614;32.062;34.834;2024-01-25T02:25:31;4.35;;;2.10;;
75935;SDS011;64614;32.062;34.834;2024-01-25T02:28:00;3.63;;;2.00;;
75935;SDS011;64614;32.062;34.834;2024-01-25T02:30:26;4.15;;;2.17;;
75935;SDS011;64614;32.062;34.834;2024-01-25T02:32:51;4.05;;;2.20;;
75935;SDS011;64614;32.062;34.834;2024-01-25T02:35:17;3.92;;;2.20;;
75935;SDS011;64614;32.062;34.834;2024-01-25T02:37:43;5.03;;;2.60;;
75935;SDS011;64614;32.062;34.834;2024-01-25T02:40:09;4.40;;;2.30;;
75935;SDS011;64614;32.062;34.834;2024-01-25T02:42:35;4.85;;;2.40;;
75935;SDS011;64614;32.062;34.834;2024-01-25T02:45:02;5.07;;;2.55;;
75935;SDS011;64614;32.062;34.834;2024-01-25T02:47:28;5.07;;;2.30;;
75935;SDS011;64614;32.062;34.834;2024-01-25T02:49:55;4.30;;;2.25;;
75935;SDS011;64614;32.062;34.834;2024-01-25T02:52:20;6.00;;;2.40;;
75935;SDS011;64614;32.062;34.834;2024-01-25T02:54:46;4.28;;;2.15;;
75935;SDS011;64614;32.062;34.834;2024-01-25T02:57:11;5.15;;;2.40;;
75935;SDS011;64614;32.062;34.834;2024-01-25T02:59:37;5.18;;;2.47;;
75935;SDS011;64614;32.062;34.834;2024-01-25T03:02:03;4.85;;;2.17;;
75935;SDS011;64614;32.062;34.834;2024-01-25T03:04:28;5.13;;;2.58;;
75935;SDS011;64614;32.062;34.834;2024-01-25T03:06:54;5.22;;;2.40;;
75935;SDS011;64614;32.062;34.834;2024-01-25T03:09:20;5.30;;;2.60;;
75935;SDS011;64614;32.062;34.834;2024-01-25T03:11:47;4.63;;;2.45;;
75935;SDS011;64614;32.062;34.834;2024-01-25T03:14:15;5.22;;;2.55;;
75935;SDS011;64614;32.062;34.834;2024-01-25T03:16:42;4.93;;;2.30;;
75935;SDS011;64614;32.062;34.834;2024-01-25T03:19:10;5.15;;;2.65;;
75935;SDS011;64614;32.062;34.834;2024-01-25T03:21:36;5.07;;;2.63;;
75935;SDS011;64614;32.062;34.834;2024-01-25T03:24:01;4.60;;;2.40;;
75935;SDS011;64614;32.062;34.834;2024-01-25T03:26:27;4.85;;;2.20;;
75935;SDS011;64614;32.062;34.834;2024-01-25T03:28:53;4.10;;;2.08;;
75935;SDS011;64614;32.062;34.834;2024-01-25T03:31:19;4.97;;;2.58;;
75935;SDS011;64614;32.062;34.834;2024-01-25T03:33:44;5.95;;;2.47;;
75935;SDS011;64614;32.062;34.834;2024-01-25T03:36:13;5.10;;;2.30;;
75935;SDS011;64614;32.062;34.834;2024-01-25T03:38:40;4.03;;;2.03;;
75935;SDS011;64614;32.062;34.834;2024-01-25T03:41:06;5.25;;;2.60;;
75935;SDS011;64614;32.062;34.834;2024-01-25T03:43:32;6.43;;;2.75;;
75935;SDS011;64614;32.062;34.834;2024-01-25T03:45:57;5.00;;;2.20;;
75935;SDS011;64614;32.062;34.834;2024-01-25T03:48:23;3.85;;;2.13;;
75935;SDS011;64614;32.062;34.834;2024-01-25T03:50:49;4.15;;;1.95;;
75935;SDS011;64614;32.062;34.834;2024-01-25T03:53:14;5.47;;;2.25;;
75935;SDS011;64614;32.062;34.834;2024-01-25T03:55:41;4.32;;;2.25;;
75935;SDS011;64614;32.062;34.834;2024-01-25T03:58:07;5.10;;;2.40;;
75935;SDS011;64614;32.062;34.834;2024-01-25T04:00:33;4.45;;;2.40;;
75935;SDS011;64614;32.062;34.834;2024-01-25T04:02:58;4.50;;;2.30;;
75935;SDS011;64614;32.062;34.834;2024-01-25T04:05:27;5.88;;;2.60;;
75935;SDS011;64614;32.062;34.834;2024-01-25T04:07:52;4.53;;;2.17;;
75935;SDS011;64614;32.062;34.834;2024-01-25T04:10:18;3.83;;;2.10;;
75935;SDS011;64614;32.062;34.834;2024-01-25T04:12:44;4.55;;;2.28;;
75935;SDS011;64614;32.062;34.834;2024-01-25T04:15:09;4.00;;;2.33;;
75935;SDS011;64614;32.062;34.834;2024-01-25T04:17:37;4.78;;;2.33;;
75935;SDS011;64614;32.062;34.834;2024-01-25T04:20:02;4.68;;;2.28;;
75935;SDS011;64614;32.062;34.834;2024-01-25T04:22:28;5.53;;;2.58;;
75935;SDS011;64614;32.062;34.834;2024-01-25T04:24:54;4.30;;;2.00;;
75935;SDS011;64614;32.062;34.834;2024-01-25T04:27:20;5.70;;;2.50;;
75935;SDS011;64614;32.062;34.834;2024-01-25T04:29:46;5.07;;;2.53;;
75935;SDS011;64614;32.062;34.834;2024-01-25T04:32:12;5.60;;;2.58;;
75935;SDS011;64614;32.062;34.834;2024-01-25T04:34:38;3.70;;;2.10;;
75935;SDS011;64614;32.062;34.834;2024-01-25T04:37:03;5.22;;;2.40;;
75935;SDS011;64614;32.062;34.834;2024-01-25T04:39:29;5.85;;;2.65;;
75935;SDS011;64614;32.062;34.834;2024-01-25T04:41:54;6.00;;;2.67;;
75935;SDS011;64614;32.062;34.834;2024-01-25T04:44:20;8.07;;;3.13;;
75935;SDS011;64614;32.062;34.834;2024-01-25T04:46:46;6.90;;;3.10;;
75935;SDS011;64614;32.062;34.834;2024-01-25T04:49:14;10.15;;;3.28;;
75935;SDS011;64614;32.062;34.834;2024-01-25T04:51:39;9.40;;;3.03;;
75935;SDS011;64614;32.062;34.834;2024-01-25T04:54:05;7.47;;;3.08;;
75935;SDS011;64614;32.062;34.834;2024-01-25T04:56:32;8.20;;;3.03;;
75935;SDS011;64614;32.062;34.834;2024-01-25T04:58:58;9.50;;;3.50;;
75935;SDS011;64614;32.062;34.834;2024-01-25T05:01:23;8.60;;;3.08;;
75935;SDS011;64614;32.062;34.834;2024-01-25T05:03:49;6.90;;;3.17;;
75935;SDS011;64614;32.062;34.834;2024-01-25T05:06:15;8.32;;;3.10;;
75935;SDS011;64614;32.062;34.834;2024-01-25T05:08:41;7.60;;;3.22;;
75935;SDS011;64614;32.062;34.834;2024-01-25T05:11:08;6.93;;;2.88;;
75935;SDS011;64614;32.062;34.834;2024-01-25T05:13:34;7.70;;;2.90;;
75935;SDS011;64614;32.062;34.834;2024-01-25T05:16:00;8.75;;;3.15;;
75935;SDS011;64614;32.062;34.834;2024-01-25T05:18:26;9.70;;;3.03;;
75935;SDS011;64614;32.062;34.834;2024-01-25T05:20:51;8.32;;;2.88;;
75935;SDS011;64614;32.062;34.834;2024-01-25T05:23:17;7.47;;;3.20;;
75935;SDS011;64614;32.062;34.834;2024-01-25T05:25:43;7.00;;;3.05;;
75935;SDS011;64614;32.062;34.834;2024-01-25T05:28:08;8.68;;;3.65;;
75935;SDS011;64614;32.062;34.834;2024-01-25T05:30:34;7.90;;;3.10;;
75935;SDS011;64614;32.062;34.834;2024-01-25T05:33:01;8.65;;;3.45;;
75935;SDS011;64614;32.062;34.834;2024-01-25T05:35:27;11.15;;;3.58;;
75935;SDS011;64614;32.062;34.834;2024-01-25T05:37:52;10.23;;;3.20;;
75935;SDS011;64614;32.062;34.834;2024-01-25T05:40:18;8.20;;;2.92;;
75935;SDS011;64614;32.062;34.834;2024-01-25T05:42:44;6.72;;;2.97;;
75935;SDS011;64614;32.062;34.834;2024-01-25T05:45:10;6.57;;;2.90;;
75935;SDS011;64614;32.062;34.834;2024-01-25T05:47:35;6.45;;;2.70;;
75935;SDS011;64614;32.062;34.834;2024-01-25T05:50:01;6.43;;;2.88;;
75935;SDS011;64614;32.062;34.834;2024-01-25T05:52:27;7.38;;;2.90;;
75935;SDS011;64614;32.062;34.834;2024-01-25T05:54:54;6.47;;;2.90;;
75935;SDS011;64614;32.062;34.834;2024-01-25T05:57:21;6.32;;;2.90;;
75935;SDS011;64614;32.062;34.834;2024-01-25T05:59:47;6.80;;;3.00;;
75935;SDS011;64614;32.062;34.834;2024-01-25T06:02:13;8.77;;;3.00;;
75935;SDS011;64614;32.062;34.834;2024-01-25T06:04:39;7.40;;;2.97;;
75935;SDS011;64614;32.062;34.834;2024-01-25T06:07:05;7.43;;;2.80;;
75935;SDS011;64614;32.062;34.834;2024-01-25T06:09:30;8.35;;;3.30;;
75935;SDS011;64614;32.062;34.834;2024-01-25T06:11:57;8.50;;;3.25;;
75935;SDS011;64614;32.062;34.834;2024-01-25T06:14:23;6.95;;;3.15;;
75935;SDS011;64614;32.062;34.834;2024-01-25T06:16:49;7.15;;;3.28;;
75935;SDS011;64614;32.062;34.834;2024-01-25T06:19:15;7.05;;;3.13;;
75935;SDS011;64614;32.062;34.834;2024-01-25T06:21:40;9.18;;;3.00;;
75935;SDS011;64614;32.062;34.834;2024-01-25T06:24:06;8.45;;;2.85;;
75935;SDS011;64614;32.062;34.834;2024-01-25T06:26:32;7.50;;;2.95;;
75935;SDS011;64614;32.062;34.834;2024-01-25T06:28:58;8.27;;;3.13;;
75935;SDS011;64614;32.062;34.834;2024-01-25T06:31:24;7.32;;;3.15;;
75935;SDS011;64614;32.062;34.834;2024-01-25T06:33:50;8.20;;;3.25;;
75935;SDS011;64614;32.062;34.834;2024-01-25T06:36:20;8.40;;;3.05;;
75935;SDS011;64614;32.062;34.834;2024-01-25T06:38:46;7.30;;;2.80;;
75935;SDS011;64614;32.062;34.834;2024-01-25T06:41:12;6.47;;;2.95;;
75935;SDS011;64614;32.062;34.834;2024-01-25T06:43:38;6.85;;;2.60;;
75935;SDS011;64614;32.062;34.834;2024-01-25T06:46:05;8.20;;;3.10;;
75935;SDS011;64614;32.062;34.834;2024-01-25T06:48:31;7.13;;;3.13;;
75935;SDS011;64614;32.062;34.834;2024-01-25T06:50:57;7.00;;;2.75;;
75935;SDS011;64614;32.062;34.834;2024-01-25T06:53:23;4.45;;;2.55;;
75935;SDS011;64614;32.062;34.834;2024-01-25T06:55:49;7.05;;;2.72;;
75935;SDS011;64614;32.062;34.834;2024-01-25T06:58:14;7.60;;;3.00;;
75935;SDS011;64614;32.062;34.834;2024-01-25T07:00:40;7.60;;;2.67;;
75935;SDS011;64614;32.062;34.834;2024-01-25T07:03:07;5.43;;;2.70;;
75935;SDS011;64614;32.062;34.834;2024-01-25T07:05:33;6.70;;;2.50;;
75935;SDS011;64614;32.062;34.834;2024-01-25T07:08:00;5.57;;;2.75;;
75935;SDS011;64614;32.062;34.834;2024-01-25T07:10:27;8.88;;;2.83;;
75935;SDS011;64614;32.062;34.834;2024-01-25T07:12:52;7.50;;;3.22;;
75935;SDS011;64614;32.062;34.834;2024-01-25T07:15:19;5.88;;;2.47;;
75935;SDS011;64614;32.062;34.834;2024-01-25T07:17:45;7.05;;;2.63;;
75935;SDS011;64614;32.062;34.834;2024-01-25T07:20:10;5.15;;;2.28;;
75935;SDS011;64614;32.062;34.834;2024-01-25T07:22:36;5.45;;;2.70;;
75935;SDS011;64614;32.062;34.834;2024-01-25T07:25:03;5.32;;;2.47;;
75935;SDS011;64614;32.062;34.834;2024-01-25T07:27:29;5.50;;;2.33;;
75935;SDS011;64614;32.062;34.834;2024-01-25T07:29:55;6.63;;;2.97;;
75935;SDS011;64614;32.062;34.834;2024-01-25T07:32:21;6.18;;;2.88;;
75935;SDS011;64614;32.062;34.834;2024-01-25T07:34:49;6.35;;;2.47;;
75935;SDS011;64614;32.062;34.834;2024-01-25T07:37:15;5.88;;;2.97;;
75935;SDS011;64614;32.062;34.834;2024-01-25T07:39:41;5.57;;;2.28;;
75935;SDS011;64614;32.062;34.834;2024-01-25T07:42:07;4.78;;;2.35;;
75935;SDS011;64614;32.062;34.834;2024-01-25T07:44:32;3.67;;;2.30;;
75935;SDS011;64614;32.062;34.834;2024-01-25T07:46:58;5.57;;;2.90;;
75935;SDS011;64614;32.062;34.834;2024-01-25T07:49:24;5.80;;;2.60;;
75935;SDS011;64614;32.062;34.834;2024-01-25T07:51:50;6.05;;;2.60;;
75935;SDS011;64614;32.062;34.834;2024-01-25T07:54:15;4.97;;;2.28;;
75935;SDS011;64614;32.062;34.834;2024-01-25T07:56:41;6.72;;;2.60;;
75935;SDS011;64614;32.062;34.834;2024-01-25T07:59:07;5.03;;;2.45;;
75935;SDS011;64614;32.062;34.834;2024-01-25T08:01:32;4.97;;;2.40;;
75935;SDS011;64614;32.062;34.834;2024-01-25T08:03:58;6.32;;;2.72;;
75935;SDS011;64614;32.062;34.834;2024-01-25T08:06:25;5.65;;;2.50;;
75935;SDS011;64614;32.062;34.834;2024-01-25T08:08:52;5.75;;;2.50;;
75935;SDS011;64614;32.062;34.834;2024-01-25T08:11:17;5.15;;;2.60;;
75935;SDS011;64614;32.062;34.834;2024-01-25T08:13:45;4.55;;;2.50;;
75935;SDS011;64614;32.062;34.834;2024-01-25T08:16:13;5.20;;;2.58;;
75935;SDS011;64614;32.062;34.834;2024-01-25T08:18:39;5.13;;;2.30;;
75935;SDS011;64614;32.062;34.834;2024-01-25T08:21:05;4.70;;;2.20;;
75935;SDS011;64614;32.062;34.834;2024-01-25T08:23:31;5.30;;;2.40;;
75935;SDS011;64614;32.062;34.834;2024-01-25T08:25:57;4.53;;;2.35;;
75935;SDS011;64614;32.062;34.834;2024-01-25T08:28:22;6.22;;;2.58;;
75935;SDS011;64614;32.062;34.834;2024-01-25T08:30:48;5.93;;;2.50;;
75935;SDS011;64614;32.062;34.834;2024-01-25T08:33:14;4.95;;;2.40;;
75935;SDS011;64614;32.062;34.834;2024-01-25T08:35:40;4.00;;;2.33;;
75935;SDS011;64614;32.062;34.834;2024-01-25T08:38:06;5.20;;;2.70;;
75935;SDS011;64614;32.062;34.834;2024-01-25T08:40:32;6.60;;;2.83;;
75935;SDS011;64614;32.062;34.834;2024-01-25T08:42:58;5.15;;;2.67;;
75935;SDS011;64614;32.062;34.834;2024-01-25T08:45:24;4.40;;;2.33;;
75935;SDS011;64614;32.062;34.834;2024-01-25T08:47:50;5.03;;;2.35;;
75935;SDS011;64614;32.062;34.834;2024-01-25T08:50:16;5.20;;;2.58;;
75935;SDS011;64614;32.062;34.834;2024-01-25T08:52:42;5.32;;;2.78;;
75935;SDS011;64614;32.062;34.834;2024-01-25T08:55:08;5.35;;;2.55;;
75935;SDS011;64614;32.062;34.834;2024-01-25T08:57:37;5.13;;;2.78;;
75935;SDS011;64614;32.062;34.834;2024-01-25T09:00:03;5.40;;;2.60;;
75935;SDS011;64614;32.062;34.834;2024-01-25T09:02:35;4.85;;;2.35;;
75935;SDS011;64614;32.062;34.834;2024-01-25T09:05:01;4.57;;;2.35;;
75935;SDS011;64614;32.062;34.834;2024-01-25T09:07:28;5.05;;;2.30;;
75935;SDS011;64614;32.062;34.834;2024-01-25T09:09:54;6.68;;;2.80;;
75935;SDS011;64614;32.062;34.834;2024-01-25T09:12:19;5.55;;;2.78;;
75935;SDS011;64614;32.062;34.834;2024-01-25T09:14:45;6.50;;;3.00;;
75935;SDS011;64614;32.062;34.834;2024-01-25T09:17:11;5.32;;;2.33;;
75935;SDS011;64614;32.062;34.834;2024-01-25T09:19:36;4.88;;;2.40;;
75935;SDS011;64614;32.062;34.834;2024-01-25T09:22:02;4.63;;;2.42;;
75935;SDS011;64614;32.062;34.834;2024-01-25T09:24:30;5.40;;;2.60;;
75935;SDS011;64614;32.062;34.834;2024-01-25T09:26:56;4.95;;;2.30;;
75935;SDS011;64614;32.062;34.834;2024-01-25T09:29:24;5.53;;;2.30;;
75935;SDS011;64614;32.062;34.834;2024-01-25T09:31:50;4.93;;;2.58;;
75935;SDS011;64614;32.062;34.834;2024-01-25T09:34:15;4.20;;;2.05;;
75935;SDS011;64614;32.062;34.834;2024-01-25T09:36:42;4.63;;;2.35;;
75935;SDS011;64614;32.062;34.834;2024-01-25T09:39:08;4.80;;;2.00;;
75935;SDS011;64614;32.062;34.834;2024-01-25T09:41:33;3.90;;;1.85;;
75935;SDS011;64614;32.062;34.834;2024-01-25T09:43:59;4.28;;;1.90;;
75935;SDS011;64614;32.062;34.834;2024-01-25T09:46:25;5.00;;;2.03;;
75935;SDS011;64614;32.062;34.834;2024-01-25T09:48:51;4.22;;;2.00;;
75935;SDS011;64614;32.062;34.834;2024-01-25T09:51:17;5.03;;;2.40;;
75935;SDS011;64614;32.062;34.834;2024-01-25T09:53:43;5.47;;;2.47;;
75935;SDS011;64614;32.062;34.834;2024-01-25T09:56:11;5.28;;;2.40;;
75935;SDS011;64614;32.062;34.834;2024-01-25T10:01:07;4.63;;;2.28;;
75935;SDS011;64614;32.062;34.834;2024-01-25T10:03:35;3.72;;;1.90;;
75935;SDS011;64614;32.062;34.834;2024-01-25T10:06:01;3.20;;;1.98;;
75935;SDS011;64614;32.062;34.834;2024-01-25T10:08:28;3.50;;;2.10;;
75935;SDS011;64614;32.062;34.834;2024-01-25T10:10:54;4.53;;;2.20;;
75935;SDS011;64614;32.062;34.834;2024-01-25T10:13:20;5.13;;;2.20;;
75935;SDS011;64614;32.062;34.834;2024-01-25T10:15:46;4.47;;;2.40;;
75935;SDS011;64614;32.062;34.834;2024-01-25T10:18:13;3.70;;;2.17;;
75935;SDS011;64614;32.062;34.834;2024-01-25T10:20:39;4.15;;;2.28;;
75935;SDS011;64614;32.062;34.834;2024-01-25T10:23:07;5.63;;;2.65;;
75935;SDS011;64614;32.062;34.834;2024-01-25T10:25:36;6.78;;;2.90;;
75935;SDS011;64614;32.062;34.834;2024-01-25T10:28:05;5.28;;;2.85;;
75935;SDS011;64614;32.062;34.834;2024-01-25T10:30:32;5.88;;;2.97;;
75935;SDS011;64614;32.062;34.834;2024-01-25T10:32:59;6.93;;;2.90;;
75935;SDS011;64614;32.062;34.834;2024-01-25T10:35:25;6.82;;;2.80;;
75935;SDS011;64614;32.062;34.834;2024-01-25T10:37:52;5.40;;;2.80;;
75935;SDS011;64614;32.062;34.834;2024-01-25T10:40:18;5.22;;;2.80;;
75935;SDS011;64614;32.062;34.834;2024-01-25T10:42:44;5.53;;;2.72;;
75935;SDS011;64614;32.062;34.834;2024-01-25T10:45:10;5.55;;;2.97;;
75935;SDS011;64614;32.062;34.834;2024-01-25T10:47:36;5.82;;;3.10;;
75935;SDS011;64614;32.062;34.834;2024-01-25T10:50:04;5.65;;;2.95;;
75935;SDS011;64614;32.062;34.834;2024-01-25T10:52:34;5.88;;;2.90;;
75935;SDS011;64614;32.062;34.834;2024-01-25T10:55:00;5.20;;;2.88;;
75935;SDS011;64614;32.062;34.834;2024-01-25T10:57:34;6.05;;;2.83;;
75935;SDS011;64614;32.062;34.834;2024-01-25T11:00:04;4.95;;;2.60;;
75935;SDS011;64614;32.062;34.834;2024-01-25T11:02:34;5.25;;;2.60;;
75935;SDS011;64614;32.062;34.834;2024-01-25T11:05:16;5.55;;;2.90;;
75935;SDS011;64614;32.062;34.834;2024-01-25T11:07:47;4.45;;;2.30;;
75935;SDS011;64614;32.062;34.834;2024-01-25T11:10:16;4.03;;;2.42;;
75935;SDS011;64614;32.062;34.834;2024-01-25T11:13:15;4.90;;;2.58;;
75935;SDS011;64614;32.062;34.834;2024-01-25T11:15:39;4.28;;;2.60;;
75935;SDS011;64614;32.062;34.834;2024-01-25T11:18:07;5.47;;;2.65;;
75935;SDS011;64614;32.062;34.834;2024-01-25T11:20:34;4.47;;;2.00;;
75935;SDS011;64614;32.062;34.834;2024-01-25T11:23:04;5.43;;;2.15;;
75935;SDS011;64614;32.062;34.834;2024-01-25T11:25:32;3.97;;;2.05;;
75935;SDS011;64614;32.062;34.834;2024-01-25T11:28:00;3.60;;;2.13;;
75935;SDS011;64614;32.062;34.834;2024-01-25T11:30:27;3.50;;;1.95;;
75935;SDS011;64614;32.062;34.834;2024-01-25T11:32:54;2.10;;;1.60;;
75935;SDS011;64614;32.062;34.834;2024-01-25T11:35:21;3.38;;;1.95;;
75935;SDS011;64614;32.062;34.834;2024-01-25T11:37:48;3.75;;;1.88;;
75935;SDS011;64614;32.062;34.834;2024-01-25T11:40:17;2.63;;;1.70;;
75935;SDS011;64614;32.062;34.834;2024-01-25T11:42:43;3.83;;;1.85;;
75935;SDS011;64614;32.062;34.834;2024-01-25T11:45:14;3.42;;;1.80;;
75935;SDS011;64614;32.062;34.834;2024-01-25T11:47:41;3.70;;;2.00;;
75935;SDS011;64614;32.062;34.834;2024-01-25T11:50:08;3.90;;;1.83;;
75935;SDS011;64614;32.062;34.834;2024-01-25T11:52:35;4.80;;;2.15;;
75935;SDS011;64614;32.062;34.834;2024-01-25T11:55:02;3.42;;;1.83;;
75935;SDS011;64614;32.062;34.834;2024-01-25T11:57:29;3.35;;;1.70;;
75935;SDS011;64614;32.062;34.834;2024-01-25T12:02:23;4.80;;;1.95;;
75935;SDS011;64614;32.062;34.834;2024-01-25T12:04:49;4.53;;;2.22;;
75935;SDS011;64614;32.062;34.834;2024-01-25T12:07:15;4.55;;;2.20;;
75935;SDS011;64614;32.062;34.834;2024-01-25T12:09:41;4.70;;;1.98;;
75935;SDS011;64614;32.062;34.834;2024-01-25T12:12:08;3.47;;;1.88;;
75935;SDS011;64614;32.062;34.834;2024-01-25T12:14:35;5.43;;;2.00;;
75935;SDS011;64614;32.062;34.834;2024-01-25T12:17:03;3.42;;;2.03;;
75935;SDS011;64614;32.062;34.834;2024-01-25T12:19:29;3.25;;;1.95;;
75935;SDS011;64614;32.062;34.834;2024-01-25T12:21:56;2.67;;;1.80;;
75935;SDS011;64614;32.062;34.834;2024-01-25T12:24:21;5.25;;;2.00;;
75935;SDS011;64614;32.062;34.834;2024-01-25T12:26:47;5.03;;;1.75;;
75935;SDS011;64614;32.062;34.834;2024-01-25T12:29:13;3.83;;;2.03;;
75935;SDS011;64614;32.062;34.834;2024-01-25T12:31:39;3.60;;;2.03;;
75935;SDS011;64614;32.062;34.834;2024-01-25T12:34:11;3.60;;;1.83;;
75935;SDS011;64614;32.062;34.834;2024-01-25T12:36:38;4.65;;;2.00;;
75935;SDS011;64614;32.062;34.834;2024-01-25T12:39:04;4.03;;;1.88;;
75935;SDS011;64614;32.062;34.834;2024-01-25T12:41:29;2.40;;;1.63;;
75935;SDS011;64614;32.062;34.834;2024-01-25T12:43:55;4.22;;;2.17;;
75935;SDS011;64614;32.062;34.834;2024-01-25T12:46:21;3.58;;;1.90;;
75935;SDS011;64614;32.062;34.834;2024-01-25T12:48:46;4.50;;;2.00;;
75935;SDS011;64614;32.062;34.834;2024-01-25T12:51:12;4.85;;;2.00;;
75935;SDS011;64614;32.062;34.834;2024-01-25T12:53:38;4.15;;;2.17;;
75935;SDS011;64614;32.062;34.834;2024-01-25T12:56:03;3.55;;;1.80;;
75935;SDS011;64614;32.062;34.834;2024-01-25T12:58:29;4.55;;;1.90;;
75935;SDS011;64614;32.062;34.834;2024-01-25T13:00:55;4.95;;;2.20;;
75935;SDS011;64614;32.062;34.834;2024-01-25T13:03:20;4.47;;;2.30;;
75935;SDS011;64614;32.062;34.834;2024-01-25T13:05:46;4.28;;;2.08;;
75935;SDS011;64614;32.062;34.834;2024-01-25T13:08:12;4.50;;;2.25;;
75935;SDS011;64614;32.062;34.834;2024-01-25T13:10:37;5.30;;;2.15;;
75935;SDS011;64614;32.062;34.834;2024-01-25T13:13:03;4.95;;;2.30;;
75935;SDS011;64614;32.062;34.834;2024-01-25T13:15:28;5.18;;;2.30;;
75935;SDS011;64614;32.062;34.834;2024-01-25T13:17:54;4.00;;;2.22;;
75935;SDS011;64614;32.062;34.834;2024-01-25T13:20:20;4.50;;;2.08;;
75935;SDS011;64614;32.062;34.834;2024-01-25T13:22:45;4.78;;;2.13;;
75935;SDS011;64614;32.062;34.834;2024-01-25T13:25:13;4.82;;;1.90;;
75935;SDS011;64614;32.062;34.834;2024-01-25T13:27:40;3.60;;;2.20;;
75935;SDS011;64614;32.062;34.834;2024-01-25T13:30:05;3.33;;;2.22;;
75935;SDS011;64614;32.062;34.834;2024-01-25T13:32:31;3.90;;;2.10;;
75935;SDS011;64614;32.062;34.834;2024-01-25T13:34:57;4.32;;;2.10;;
75935;SDS011;64614;32.062;34.834;2024-01-25T13:37:23;3.63;;;2.00;;
75935;SDS011;64614;32.062;34.834;2024-01-25T13:39:48;8.77;;;2.40;;
75935;SDS011;64614;32.062;34.834;2024-01-25T13:42:14;6.40;;;2.63;;
75935;SDS011;64614;32.062;34.834;2024-01-25T13:44:40;6.57;;;2.17;;
75935;SDS011;64614;32.062;34.834;2024-01-25T13:47:05;6.28;;;2.60;;
75935;SDS011;64614;32.062;34.834;2024-01-25T13:49:31;5.80;;;2.58;;
75935;SDS011;64614;32.062;34.834;2024-01-25T13:51:59;5.00;;;2.25;;
75935;SDS011;64614;32.062;34.834;2024-01-25T13:54:27;5.93;;;3.10;;
75935;SDS011;64614;32.062;34.834;2024-01-25T13:56:54;6.07;;;3.28;;
75935;SDS011;64614;32.062;34.834;2024-01-25T13:59:20;8.82;;;3.55;;
75935;SDS011;64614;32.062;34.834;2024-01-25T14:01:46;6.80;;;3.33;;
75935;SDS011;64614;32.062;34.834;2024-01-25T14:04:12;8.15;;;2.80;;
75935;SDS011;64614;32.062;34.834;2024-01-25T14:06:38;6.90;;;2.72;;
75935;SDS011;64614;32.062;34.834;2024-01-25T14:09:04;7.07;;;2.78;;
75935;SDS011;64614;32.062;34.834;2024-01-25T14:11:30;7.88;;;2.05;;
75935;SDS011;64614;32.062;34.834;2024-01-25T14:13:56;7.10;;;2.17;;
75935;SDS011;64614;32.062;34.834;2024-01-25T14:16:22;5.40;;;2.60;;
75935;SDS011;64614;32.062;34.834;2024-01-25T14:18:47;5.15;;;2.20;;
75935;SDS011;64614;32.062;34.834;2024-01-25T14:21:13;4.75;;;2.03;;
75935;SDS011;64614;32.062;34.834;2024-01-25T14:23:39;4.15;;;2.10;;
75935;SDS011;64614;32.062;34.834;2024-01-25T14:26:04;6.68;;;2.50;;
75935;SDS011;64614;32.062;34.834;2024-01-25T14:28:30;5.70;;;2.40;;
75935;SDS011;64614;32.062;34.834;2024-01-25T14:30:56;6.00;;;2.30;;
75935;SDS011;64614;32.062;34.834;2024-01-25T14:33:21;5.28;;;2.20;;